createdAt,value
2022-08-19T00:00:42.042Z,19.20
2022-08-19T00:03:13.484Z,19.10
2022-08-19T00:05:44.715Z,19.10
2022-08-19T00:08:15.253Z,19.10
2022-08-19T00:10:48.390Z,19.10
2022-08-19T00:13:18.847Z,19.00
2022-08-19T00:15:47.625Z,19.00
2022-08-19T00:18:15.998Z,19.00
2022-08-19T00:20:44.789Z,19.00
2022-08-19T00:23:16.895Z,19.00
2022-08-19T00:25:49.458Z,19.00
2022-08-19T00:28:23.080Z,19.00
2022-08-19T00:31:02.379Z,19.00
2022-08-19T00:33:37.726Z,19.00
2022-08-19T00:36:11.666Z,19.00
2022-08-19T00:38:47.734Z,19.00
2022-08-19T00:41:27.429Z,19.00
2022-08-19T00:44:17.033Z,18.90
2022-08-19T00:46:55.361Z,18.90
2022-08-19T00:49:36.659Z,18.90
2022-08-19T00:52:11.728Z,18.80
2022-08-19T00:54:47.783Z,18.80
2022-08-19T00:57:28.748Z,18.70
2022-08-19T01:00:04.400Z,18.70
2022-08-19T01:02:35.488Z,18.60
2022-08-19T01:05:11.131Z,18.60
2022-08-19T01:07:48.317Z,18.50
2022-08-19T01:10:25.304Z,18.50
2022-08-19T01:12:59.187Z,18.50
2022-08-19T01:15:35.169Z,18.50
2022-08-19T01:18:13.834Z,18.50
2022-08-19T01:20:47.367Z,18.60
2022-08-19T01:23:46.858Z,18.60
2022-08-19T01:26:24.448Z,18.60
2022-08-19T01:29:00.892Z,18.60
2022-08-19T01:31:34.832Z,18.70
2022-08-19T01:34:08.373Z,18.70
2022-08-19T01:36:41.639Z,18.60
2022-08-19T01:39:24.414Z,18.60
2022-08-19T01:41:58.173Z,18.60
2022-08-19T01:44:37.486Z,18.50
2022-08-19T01:47:13.086Z,18.50
2022-08-19T01:49:48.520Z,18.50
2022-08-19T01:52:23.066Z,18.40
2022-08-19T01:54:54.931Z,18.40
2022-08-19T01:57:27.501Z,18.40
2022-08-19T01:59:59.347Z,18.30
2022-08-19T02:02:31.737Z,18.30
2022-08-19T02:05:01.623Z,18.20
2022-08-19T02:07:34.316Z,18.20
2022-08-19T02:10:12.480Z,18.20
2022-08-19T02:12:48.493Z,18.20
2022-08-19T02:15:21.907Z,18.10
2022-08-19T02:17:56.941Z,18.10
2022-08-19T02:20:31.999Z,18.20
2022-08-19T02:23:02.631Z,18.10
2022-08-19T02:25:32.531Z,18.20
2022-08-19T02:28:16.633Z,18.10
2022-08-19T02:31:07.586Z,18.10
2022-08-19T02:33:42.826Z,18.20
2022-08-19T02:36:25.116Z,18.20
2022-08-19T02:39:07.274Z,18.20
2022-08-19T02:41:54.166Z,18.20
2022-08-19T02:44:36.656Z,18.20
2022-08-19T02:47:24.055Z,18.10
2022-08-19T02:50:22.549Z,18.10
2022-08-19T02:53:06.622Z,18.10
2022-08-19T02:55:46.049Z,18.00
2022-08-19T02:58:22.473Z,18.00
2022-08-19T03:00:59.014Z,18.00
2022-08-19T03:03:31.340Z,18.00
2022-08-19T03:06:12.847Z,18.00
2022-08-19T03:08:50.595Z,18.00
2022-08-19T03:11:24.175Z,18.00
2022-08-19T03:13:55.526Z,17.90
2022-08-19T03:16:28.406Z,17.80
2022-08-19T03:19:03.021Z,17.90
2022-08-19T03:21:41.012Z,17.90
2022-08-19T03:24:35.409Z,17.90
2022-08-19T03:27:32.526Z,17.90
2022-08-19T03:30:23.202Z,17.90
2022-08-19T03:33:18.284Z,17.90
2022-08-19T03:36:10.188Z,17.90
2022-08-19T03:38:40.179Z,17.90
2022-08-19T03:41:10.891Z,17.90
2022-08-19T03:43:41.455Z,17.80
2022-08-19T03:46:15.170Z,17.70
2022-08-19T03:48:45.548Z,17.70
2022-08-19T03:51:30.681Z,17.60
2022-08-19T03:54:03.458Z,17.50
2022-08-19T03:56:33.857Z,17.50
2022-08-19T03:59:05.620Z,17.50
2022-08-19T04:01:39.735Z,17.50
2022-08-19T04:04:10.245Z,17.50
2022-08-19T04:06:40.440Z,17.50
2022-08-19T04:09:12.612Z,17.50
2022-08-19T04:11:46.606Z,17.60
2022-08-19T04:14:22.288Z,17.60
2022-08-19T04:16:54.230Z,17.60
2022-08-19T04:19:27.331Z,17.60
2022-08-19T04:21:57.200Z,17.70
2022-08-19T04:24:30.819Z,17.70
2022-08-19T04:27:03.989Z,17.70
2022-08-19T04:29:35.562Z,17.70
2022-08-19T04:32:08.741Z,17.70
2022-08-19T04:35:02.241Z,17.70
2022-08-19T04:37:29.525Z,17.70
2022-08-19T04:40:23.900Z,17.70
2022-08-19T04:42:54.938Z,17.60
2022-08-19T04:45:38.829Z,17.60
2022-08-19T04:48:26.392Z,17.60
2022-08-19T04:51:04.447Z,17.60
2022-08-19T04:53:42.237Z,17.50
2022-08-19T04:56:17.935Z,17.50
2022-08-19T04:58:58.126Z,17.50
2022-08-19T05:01:32.061Z,17.40
2022-08-19T05:04:08.906Z,17.50
2022-08-19T05:06:44.012Z,17.50
2022-08-19T05:09:21.018Z,17.50
2022-08-19T05:12:09.737Z,17.50
2022-08-19T05:14:52.519Z,17.50
2022-08-19T05:17:36.240Z,17.50
2022-08-19T05:20:57.869Z,17.60
2022-08-19T05:24:06.185Z,17.60
2022-08-19T05:26:36.345Z,17.60
2022-08-19T05:29:07.860Z,17.70
2022-08-19T05:31:41.806Z,17.70
2022-08-19T05:34:18.573Z,17.70
2022-08-19T05:36:58.148Z,17.70
2022-08-19T05:39:51.578Z,17.80
2022-08-19T05:43:11.874Z,17.90
2022-08-19T05:49:28.717Z,18.10
2022-08-19T05:55:33.474Z,18.30
2022-08-19T05:58:23.280Z,18.40
2022-08-19T06:01:14.333Z,18.60
2022-08-19T06:16:24.151Z,19.20
2022-08-19T06:19:08.409Z,19.30
2022-08-19T06:22:02.929Z,19.40
2022-08-19T06:24:47.536Z,19.50
2022-08-19T06:30:44.940Z,19.60
2022-08-19T06:33:53.234Z,19.60
2022-08-19T06:36:55.880Z,19.60
2022-08-19T06:39:41.971Z,19.60
2022-08-19T06:42:25.722Z,19.70
2022-08-19T06:45:09.318Z,19.80
2022-08-19T06:47:49.938Z,19.70
2022-08-19T06:50:40.993Z,19.80
2022-08-19T06:53:33.168Z,19.90
2022-08-19T06:56:09.314Z,19.90
2022-08-19T06:59:09.583Z,19.90
2022-08-19T07:01:49.143Z,19.90
2022-08-19T07:04:52.489Z,19.90
2022-08-19T07:07:36.391Z,19.90
2022-08-19T07:10:25.838Z,20.00
2022-08-19T07:12:56.706Z,20.00
2022-08-19T07:15:45.600Z,20.10
2022-08-19T07:18:49.746Z,20.10
2022-08-19T07:21:46.310Z,20.20
2022-08-19T07:24:23.532Z,20.20
2022-08-19T07:27:19.534Z,20.10
2022-08-19T07:30:00.204Z,20.10
2022-08-19T07:32:41.359Z,20.10
2022-08-19T07:35:38.359Z,20.10
2022-08-19T07:38:39.060Z,20.00
2022-08-19T07:41:26.519Z,20.10
2022-08-19T07:44:18.036Z,20.10
2022-08-19T07:47:03.445Z,20.20
2022-08-19T07:49:39.796Z,20.20
2022-08-19T07:52:14.812Z,20.20
2022-08-19T07:55:42.712Z,20.30
2022-08-19T07:58:22.024Z,20.30
2022-08-19T08:00:58.984Z,20.40
2022-08-19T08:04:06.326Z,20.40
2022-08-19T08:07:09.413Z,20.30
2022-08-19T08:09:50.565Z,20.30
2022-08-19T08:12:34.047Z,20.30
2022-08-19T08:15:46.186Z,20.30
2022-08-19T08:21:29.470Z,20.40
2022-08-19T08:24:22.464Z,20.50
2022-08-19T08:27:01.265Z,20.50
2022-08-19T08:29:38.841Z,20.50
2022-08-19T08:32:31.803Z,20.60
2022-08-19T08:35:04.845Z,20.60
2022-08-19T08:37:52.100Z,20.70
2022-08-19T08:40:30.767Z,20.70
2022-08-19T08:43:53.996Z,20.80
2022-08-19T08:47:07.839Z,20.90
2022-08-19T08:50:06.493Z,20.90
2022-08-19T08:52:55.725Z,21.00
2022-08-19T08:55:36.450Z,21.00
2022-08-19T08:58:39.355Z,21.00
2022-08-19T09:04:26.959Z,21.00
2022-08-19T09:07:57.851Z,21.00
2022-08-19T09:11:42.610Z,21.20
2022-08-19T09:14:40.696Z,21.30
2022-08-19T09:17:09.186Z,21.40
2022-08-19T09:19:42.378Z,21.50
2022-08-19T09:22:37.813Z,21.60
2022-08-19T09:25:07.199Z,21.70
2022-08-19T09:27:43.538Z,21.70
2022-08-19T09:32:57.837Z,21.80
2022-08-19T09:35:50.149Z,21.90
2022-08-19T09:38:22.198Z,21.90
2022-08-19T09:40:51.195Z,22.00
2022-08-19T09:43:33.253Z,22.00
2022-08-19T09:46:10.214Z,22.00
2022-08-19T09:48:39.442Z,22.00
2022-08-19T09:51:15.424Z,21.90
2022-08-19T09:53:45.708Z,21.90
2022-08-19T09:56:14.763Z,21.80
2022-08-19T09:58:50.181Z,21.80
2022-08-19T10:01:22.643Z,21.80
2022-08-19T10:03:59.836Z,21.80
2022-08-19T10:06:41.987Z,21.80
2022-08-19T10:09:26.245Z,21.90
2022-08-19T10:12:03.861Z,22.00
2022-08-19T10:14:33.677Z,22.10
2022-08-19T10:17:17.651Z,22.10
2022-08-19T10:19:55.581Z,22.20
2022-08-19T10:22:29.104Z,22.20
2022-08-19T10:25:02.115Z,22.20
2022-08-19T10:27:32.254Z,22.30
2022-08-19T10:30:03.578Z,22.40
2022-08-19T10:32:34.466Z,22.50
2022-08-19T10:35:03.123Z,22.60
2022-08-19T10:37:35.296Z,22.60
2022-08-19T10:40:05.083Z,22.70
2022-08-19T10:42:33.856Z,22.80
2022-08-19T10:45:04.819Z,22.90
2022-08-19T10:47:34.855Z,22.90
2022-08-19T10:50:20.613Z,22.90
2022-08-19T10:52:50.839Z,22.90
2022-08-19T10:55:38.882Z,22.80
2022-08-19T10:58:12.281Z,22.80
2022-08-19T11:00:44.041Z,22.70
2022-08-19T11:03:12.722Z,22.70
2022-08-19T11:05:42.227Z,22.70
2022-08-19T11:08:18.189Z,22.70
2022-08-19T11:11:01.090Z,22.80
2022-08-19T11:13:32.334Z,22.90
2022-08-19T11:16:14.272Z,23.00
2022-08-19T11:18:44.884Z,23.00
2022-08-19T11:21:20.196Z,23.00
2022-08-19T11:23:50.032Z,23.00
2022-08-19T11:26:19.638Z,23.00
2022-08-19T11:28:52.324Z,23.00
2022-08-19T11:31:24.345Z,23.00
2022-08-19T11:34:00.919Z,23.00
2022-08-19T11:36:36.560Z,23.00
2022-08-19T11:39:07.994Z,23.00
2022-08-19T11:41:37.590Z,23.00
2022-08-19T11:44:08.946Z,23.00
2022-08-19T11:47:08.993Z,23.00
2022-08-19T11:50:03.258Z,23.00
2022-08-19T11:52:33.759Z,23.00
2022-08-19T11:55:04.629Z,23.00
2022-08-19T11:57:52.927Z,23.00
2022-08-19T12:00:38.454Z,23.00
2022-08-19T12:03:10.787Z,23.00
2022-08-19T12:05:42.343Z,23.00
2022-08-19T12:08:31.643Z,23.00
2022-08-19T12:11:11.717Z,23.00
2022-08-19T12:13:53.084Z,23.00
2022-08-19T12:16:44.753Z,23.10
2022-08-19T12:19:28.875Z,23.10
2022-08-19T12:24:36.769Z,23.00
2022-08-19T12:27:14.815Z,22.90
2022-08-19T12:30:02.769Z,22.90
2022-08-19T12:38:11.258Z,23.00
2022-08-19T12:41:10.703Z,23.00
2022-08-19T12:43:42.436Z,23.00
2022-08-19T12:46:16.144Z,23.00
2022-08-19T12:48:46.862Z,23.10
2022-08-19T12:51:23.528Z,23.10
2022-08-19T12:53:57.851Z,23.10
2022-08-19T12:56:30.831Z,23.10
2022-08-19T12:59:23.664Z,23.10
2022-08-19T13:01:52.885Z,23.10
2022-08-19T13:04:40.188Z,23.20
2022-08-19T13:07:12.141Z,23.20
2022-08-19T13:09:46.704Z,23.20
2022-08-19T13:12:19.525Z,23.30
2022-08-19T13:15:11.002Z,23.30
2022-08-19T13:17:41.003Z,23.40
2022-08-19T13:20:24.321Z,23.40
2022-08-19T13:23:01.719Z,23.50
2022-08-19T13:25:53.826Z,23.50
2022-08-19T13:28:29.104Z,23.40
2022-08-19T13:31:15.332Z,23.40
2022-08-19T13:33:49.340Z,23.30
2022-08-19T13:36:25.676Z,23.30
2022-08-19T13:39:02.672Z,23.30
2022-08-19T13:41:31.460Z,23.30
2022-08-19T13:44:02.943Z,23.30
2022-08-19T13:46:33.860Z,23.30
2022-08-19T13:49:01.872Z,23.30
2022-08-19T13:51:32.222Z,23.40
2022-08-19T13:54:02.742Z,23.50
2022-08-19T13:56:30.742Z,23.50
2022-08-19T13:58:59.359Z,23.60
2022-08-19T14:01:27.857Z,23.60
2022-08-19T14:03:56.193Z,23.60
2022-08-19T14:06:26.365Z,23.60
2022-08-19T14:08:57.199Z,23.50
2022-08-19T14:11:28.444Z,23.50
2022-08-19T14:13:57.266Z,23.50
2022-08-19T14:16:28.568Z,23.50
2022-08-19T14:19:01.266Z,23.60
2022-08-19T14:21:33.468Z,23.60
2022-08-19T14:24:04.259Z,23.70
2022-08-19T14:26:36.014Z,23.60
2022-08-19T14:29:05.632Z,23.70
2022-08-19T14:31:35.755Z,23.70
2022-08-19T14:34:04.951Z,23.60
2022-08-19T14:36:39.089Z,23.60
2022-08-19T14:39:14.782Z,23.70
2022-08-19T14:41:46.976Z,23.70
2022-08-19T14:44:17.366Z,23.70
2022-08-19T14:46:49.553Z,23.70
2022-08-19T14:49:18.934Z,23.70
2022-08-19T14:51:48.812Z,23.70
2022-08-19T14:54:31.307Z,23.70
2022-08-19T14:57:08.514Z,23.70
2022-08-19T14:59:36.995Z,23.70
2022-08-19T15:02:34.107Z,23.70
2022-08-19T15:05:11.668Z,23.70
2022-08-19T15:07:52.608Z,23.70
2022-08-19T15:10:36.246Z,23.80
2022-08-19T15:13:07.791Z,23.80
2022-08-19T15:15:40.995Z,23.80
2022-08-19T15:18:18.179Z,23.90
2022-08-19T15:20:48.618Z,23.90
2022-08-19T15:23:21.800Z,23.90
2022-08-19T15:25:56.586Z,23.90
2022-08-19T15:28:32.253Z,23.90
2022-08-19T15:31:10.364Z,23.90
2022-08-19T15:33:57.966Z,23.90
2022-08-19T15:36:31.310Z,23.90
2022-08-19T15:39:05.085Z,23.90
2022-08-19T15:41:34.755Z,23.80
2022-08-19T15:44:13.416Z,23.90
2022-08-19T15:46:48.193Z,23.80
2022-08-19T15:49:20.908Z,23.70
2022-08-19T15:51:51.966Z,23.70
2022-08-19T15:54:22.518Z,23.70
2022-08-19T15:57:10.176Z,23.70
2022-08-19T16:00:03.349Z,23.80
2022-08-19T16:02:53.701Z,23.80
2022-08-19T16:05:45.122Z,23.80
2022-08-19T16:08:13.479Z,23.90
2022-08-19T16:10:49.639Z,23.90
2022-08-19T16:13:24.599Z,24.00
2022-08-19T16:15:57.695Z,24.10
2022-08-19T16:18:26.039Z,24.10
2022-08-19T16:20:55.450Z,24.10
2022-08-19T16:23:25.667Z,24.20
2022-08-19T16:26:05.547Z,24.10
2022-08-19T16:28:35.306Z,24.10
2022-08-19T16:31:12.892Z,24.10
2022-08-19T16:33:42.752Z,24.10
2022-08-19T16:36:18.505Z,24.00
2022-08-19T16:38:48.560Z,23.90
2022-08-19T16:41:17.741Z,23.70
2022-08-19T16:43:49.488Z,23.70
2022-08-19T16:46:28.365Z,23.60
2022-08-19T16:48:57.572Z,23.50
2022-08-19T16:51:28.683Z,23.40
2022-08-19T16:53:59.396Z,23.30
2022-08-19T16:56:31.803Z,23.30
2022-08-19T16:59:00.812Z,23.20
2022-08-19T17:01:38.446Z,23.20
2022-08-19T17:04:10.420Z,23.20
2022-08-19T17:06:44.336Z,23.10
2022-08-19T17:09:35.112Z,23.10
2022-08-19T17:12:09.735Z,23.10
2022-08-19T17:14:45.708Z,23.00
2022-08-19T17:17:30.842Z,23.00
2022-08-19T17:20:07.319Z,23.00
2022-08-19T17:22:39.573Z,22.90
2022-08-19T17:25:17.385Z,22.90
2022-08-19T17:27:47.290Z,22.90
2022-08-19T17:30:22.130Z,22.80
2022-08-19T17:33:10.890Z,22.80
2022-08-19T17:35:46.730Z,22.70
2022-08-19T17:38:20.940Z,22.70
2022-08-19T17:41:16.983Z,22.70
2022-08-19T17:43:49.953Z,22.70
2022-08-19T17:46:27.738Z,22.70
2022-08-19T17:49:01.426Z,22.70
2022-08-19T17:51:45.524Z,22.70
2022-08-19T17:54:19.698Z,22.60
2022-08-19T17:57:01.529Z,22.60
2022-08-19T17:59:31.440Z,22.50
2022-08-19T18:02:01.947Z,22.50
2022-08-19T18:04:39.909Z,22.50
2022-08-19T18:07:12.036Z,22.50
2022-08-19T18:09:49.500Z,22.50
2022-08-19T18:12:34.531Z,22.50
2022-08-19T18:15:04.297Z,22.50
2022-08-19T18:17:34.845Z,22.40
2022-08-19T18:20:10.694Z,22.50
2022-08-19T18:22:43.389Z,22.50
2022-08-19T18:25:15.446Z,22.50
2022-08-19T18:28:09.003Z,22.50
2022-08-19T18:30:47.376Z,22.50
2022-08-19T18:33:27.378Z,22.50
2022-08-19T18:35:57.476Z,22.40
2022-08-19T18:38:45.973Z,22.40
2022-08-19T18:41:28.123Z,22.40
2022-08-19T18:44:20.114Z,22.30
2022-08-19T18:47:06.762Z,22.30
2022-08-19T18:49:36.449Z,22.30
2022-08-19T18:52:15.415Z,22.30
2022-08-19T18:54:44.806Z,22.30
2022-08-19T18:57:18.792Z,22.30
2022-08-19T18:59:48.410Z,22.30
2022-08-19T19:02:18.218Z,22.20
2022-08-19T19:04:47.542Z,22.20
2022-08-19T19:07:18.682Z,22.20
2022-08-19T19:09:49.979Z,22.10
2022-08-19T19:12:19.545Z,22.10
2022-08-19T19:14:49.772Z,22.10
2022-08-19T19:17:23.057Z,22.10
2022-08-19T19:19:51.531Z,22.00
2022-08-19T19:22:23.611Z,22.00
2022-08-19T19:24:54.079Z,22.00
2022-08-19T19:27:35.939Z,22.00
2022-08-19T19:30:34.895Z,22.00
2022-08-19T19:33:38.944Z,22.00
2022-08-19T19:36:34.762Z,21.90
2022-08-19T19:39:45.894Z,21.90
2022-08-19T19:42:33.389Z,21.90
2022-08-19T19:45:02.609Z,21.80
2022-08-19T19:47:35.627Z,21.80
2022-08-19T19:50:15.285Z,21.70
2022-08-19T19:52:56.046Z,21.70
2022-08-19T19:55:31.258Z,21.70
2022-08-19T19:58:28.573Z,21.70
2022-08-19T20:47:35.495Z,21.40
2022-08-19T20:50:14.042Z,21.40
2022-08-19T20:52:44.882Z,21.40
2022-08-19T21:01:51.634Z,21.40
2022-08-19T21:04:21.138Z,21.40
2022-08-19T21:06:49.076Z,21.40
2022-08-19T21:09:17.197Z,21.40
2022-08-19T21:11:45.508Z,21.40
2022-08-19T21:14:13.481Z,21.40
2022-08-19T21:16:41.466Z,21.40
2022-08-19T21:19:10.752Z,21.40
2022-08-19T21:21:38.657Z,21.40
2022-08-19T21:24:06.894Z,21.40
2022-08-19T21:26:34.945Z,21.40
2022-08-19T21:29:02.872Z,21.40
2022-08-19T21:31:30.817Z,21.30
2022-08-19T21:33:59.521Z,21.30
2022-08-19T21:36:28.828Z,21.30
2022-08-19T21:38:56.732Z,21.30
2022-08-19T21:41:24.644Z,21.30
2022-08-19T21:43:52.625Z,21.20
2022-08-19T21:46:20.767Z,21.20
2022-08-19T21:48:48.638Z,21.20
2022-08-19T21:51:16.882Z,21.20
2022-08-19T21:53:46.181Z,21.20
2022-08-19T21:56:16.502Z,21.20
2022-08-19T21:58:44.693Z,21.20
2022-08-19T22:01:12.663Z,21.30
2022-08-19T22:03:41.178Z,21.20
2022-08-19T22:06:09.637Z,21.20
2022-08-19T22:08:38.206Z,21.20
2022-08-19T22:11:07.458Z,21.20
2022-08-19T22:13:39.959Z,21.20
2022-08-19T22:16:08.689Z,21.20
2022-08-19T22:18:36.646Z,21.20
2022-08-19T22:21:11.254Z,21.20
2022-08-19T22:23:40.066Z,21.10
2022-08-19T22:26:09.478Z,21.10
2022-08-19T22:28:37.513Z,21.10
2022-08-19T22:31:07.817Z,21.10
2022-08-19T22:33:37.413Z,21.00
2022-08-19T22:36:08.247Z,21.00
2022-08-19T22:38:37.367Z,20.90
2022-08-19T22:41:07.680Z,20.90
2022-08-19T22:43:37.899Z,20.80
2022-08-19T22:46:17.239Z,20.70
2022-08-19T22:48:46.423Z,20.70
2022-08-19T22:51:32.069Z,20.60
2022-08-19T22:54:00.041Z,20.50
2022-08-19T22:56:28.001Z,20.50
2022-08-19T22:58:57.365Z,20.50
2022-08-19T23:01:27.300Z,20.50
2022-08-19T23:03:58.937Z,20.40
2022-08-19T23:06:33.391Z,20.30
2022-08-19T23:09:02.434Z,20.30
2022-08-19T23:11:35.580Z,20.30
2022-08-19T23:14:07.647Z,20.30
2022-08-19T23:16:36.745Z,20.30
2022-08-19T23:19:05.573Z,20.30
2022-08-19T23:21:36.233Z,20.30
2022-08-19T23:24:05.160Z,20.40
2022-08-19T23:26:35.893Z,20.40
2022-08-19T23:29:22.606Z,20.40
2022-08-19T23:31:51.941Z,20.40
2022-08-19T23:34:19.893Z,20.30
2022-08-19T23:36:48.339Z,20.30
2022-08-19T23:39:16.215Z,20.20
2022-08-19T23:41:44.148Z,20.20
2022-08-19T23:44:14.421Z,20.20
2022-08-19T23:46:54.605Z,20.20
2022-08-19T23:49:25.962Z,20.20
2022-08-19T23:51:55.554Z,20.20
2022-08-19T23:54:34.203Z,20.20
2022-08-19T23:57:13.524Z,20.20
2022-08-19T23:59:42.871Z,20.20
